createdAt,value
2023-04-13T00:00:51.094Z,9.10
2023-04-13T00:03:40.991Z,9.20
2023-04-13T00:06:31.994Z,9.30
2023-04-13T00:09:21.669Z,9.50
2023-04-13T00:12:12.995Z,9.60
2023-04-13T00:15:03.989Z,9.70
2023-04-13T00:17:55.102Z,9.80
2023-04-13T00:20:45.430Z,9.80
2023-04-13T00:23:36.787Z,9.90
2023-04-13T00:26:26.270Z,10.00
2023-04-13T00:29:16.573Z,10.10
2023-04-13T00:32:07.852Z,10.00
2023-04-13T00:34:57.433Z,10.10
2023-04-13T00:37:49.392Z,10.20
2023-04-13T00:40:40.096Z,10.10
2023-04-13T00:43:29.596Z,10.00
2023-04-13T00:46:19.842Z,9.90
2023-04-13T00:49:13.074Z,9.90
2023-04-13T00:52:03.515Z,10.00
2023-04-13T00:54:56.753Z,10.00
2023-04-13T00:57:46.146Z,10.10
2023-04-13T01:00:39.772Z,10.10
2023-04-13T01:03:30.133Z,10.20
2023-04-13T01:06:28.802Z,10.30
2023-04-13T01:09:21.978Z,10.30
2023-04-13T01:12:17.028Z,10.30
2023-04-13T01:15:11.778Z,10.30
2023-04-13T01:18:07.702Z,10.30
2023-04-13T01:20:58.292Z,10.40
2023-04-13T01:24:07.987Z,10.40
2023-04-13T01:27:08.123Z,10.50
2023-04-13T01:29:59.706Z,10.40
2023-04-13T01:32:50.058Z,10.50
2023-04-13T01:35:40.767Z,10.40
2023-04-13T01:38:30.329Z,10.40
2023-04-13T01:41:20.215Z,10.40
2023-04-13T01:44:09.796Z,10.40
2023-04-13T01:47:16.240Z,10.40
2023-04-13T01:50:15.455Z,10.50
2023-04-13T01:53:10.250Z,10.50
2023-04-13T01:56:01.458Z,10.50
2023-04-13T01:58:56.694Z,10.40
2023-04-13T02:01:46.175Z,10.40
2023-04-13T02:04:36.990Z,10.40
2023-04-13T02:07:26.574Z,10.40
2023-04-13T02:12:51.786Z,10.40
2023-04-13T02:15:42.143Z,10.50
2023-04-13T02:18:32.421Z,10.50
2023-04-13T02:21:23.425Z,10.50
2023-04-13T02:24:12.984Z,10.40
2023-04-13T02:27:04.396Z,10.40
2023-04-13T02:29:54.646Z,10.50
2023-04-13T02:32:46.661Z,10.50
2023-04-13T02:35:39.639Z,10.50
2023-04-13T02:38:32.404Z,10.50
2023-04-13T02:41:23.614Z,10.60
2023-04-13T02:44:16.234Z,10.50
2023-04-13T02:47:05.953Z,10.60
2023-04-13T02:49:55.423Z,10.60
2023-04-13T02:52:47.477Z,10.60
2023-04-13T02:55:39.763Z,10.60
2023-04-13T02:58:33.205Z,10.60
2023-04-13T03:01:25.687Z,10.60
2023-04-13T03:04:15.273Z,10.60
2023-04-13T03:07:08.957Z,10.50
2023-04-13T03:09:58.423Z,10.50
2023-04-13T03:12:49.446Z,10.50
2023-04-13T03:15:39.071Z,10.50
2023-04-13T03:18:28.902Z,10.60
2023-04-13T03:21:18.902Z,10.50
2023-04-13T03:24:09.372Z,10.50
2023-04-13T03:26:59.537Z,10.50
2023-04-13T03:29:50.740Z,10.60
2023-04-13T03:32:40.380Z,10.50
2023-04-13T03:35:29.926Z,10.50
2023-04-13T03:38:19.626Z,10.60
2023-04-13T03:41:10.014Z,10.60
2023-04-13T03:44:00.246Z,10.50
2023-04-13T03:46:51.493Z,10.50
2023-04-13T03:49:42.053Z,10.50
2023-04-13T03:52:31.631Z,10.50
2023-04-13T03:55:21.435Z,10.60
2023-04-13T03:58:11.593Z,10.50
2023-04-13T04:01:01.211Z,10.50
2023-04-13T04:03:54.276Z,10.50
2023-04-13T04:06:43.949Z,10.40
2023-04-13T04:09:34.861Z,10.40
2023-04-13T04:12:24.515Z,10.40
2023-04-13T04:15:14.363Z,10.50
2023-04-13T04:18:03.943Z,10.50
2023-04-13T04:20:54.926Z,10.50
2023-04-13T04:23:45.195Z,10.50
2023-04-13T04:26:38.512Z,10.50
2023-04-13T04:29:34.568Z,10.50
2023-04-13T04:32:24.489Z,10.50
2023-04-13T04:35:14.657Z,10.50
2023-04-13T04:38:05.760Z,10.60
2023-04-13T04:40:58.077Z,10.60
2023-04-13T04:43:47.525Z,10.60
2023-04-13T04:46:38.937Z,10.70
2023-04-13T04:49:29.251Z,10.70
2023-04-13T04:52:18.988Z,10.70
2023-04-13T04:55:11.362Z,10.80
2023-04-13T04:58:00.868Z,10.80
2023-04-13T05:00:50.372Z,10.90
2023-04-13T05:03:39.986Z,11.00
2023-04-13T05:06:32.834Z,11.20
2023-04-13T05:09:22.533Z,11.30
2023-04-13T05:12:13.609Z,11.30
2023-04-13T05:15:03.060Z,11.40
2023-04-13T05:17:52.535Z,11.50
2023-04-13T05:20:42.167Z,11.40
2023-04-13T05:23:31.610Z,11.50
2023-04-13T05:26:21.968Z,11.50
2023-04-13T05:29:13.026Z,11.60
2023-04-13T05:32:02.483Z,11.60
2023-04-13T05:34:52.976Z,11.60
2023-04-13T05:37:42.436Z,11.50
2023-04-13T05:40:34.030Z,11.60
2023-04-13T05:43:23.938Z,11.60
2023-04-13T05:46:16.335Z,11.60
2023-04-13T05:49:06.101Z,11.60
2023-04-13T05:51:55.758Z,11.60
2023-04-13T05:54:45.456Z,11.60
2023-04-13T05:57:34.868Z,11.70
2023-04-13T06:00:24.846Z,11.70
2023-04-13T06:03:17.476Z,11.70
2023-04-13T06:06:07.963Z,11.70
2023-04-13T06:08:57.672Z,11.60
2023-04-13T06:11:47.811Z,11.50
2023-04-13T06:14:37.228Z,11.50
2023-04-13T06:17:26.842Z,11.50
2023-04-13T06:20:18.146Z,11.50
2023-04-13T06:23:07.776Z,11.50
2023-04-13T06:25:57.431Z,11.40
2023-04-13T06:28:46.986Z,11.30
2023-04-13T06:31:37.395Z,11.30
2023-04-13T06:34:27.550Z,11.20
2023-04-13T06:37:18.727Z,11.30
2023-04-13T06:40:12.910Z,11.30
2023-04-13T06:43:02.611Z,11.30
2023-04-13T06:46:00.491Z,11.40
2023-04-13T06:48:50.249Z,11.30
2023-04-13T06:51:40.025Z,11.30
2023-04-13T06:54:31.024Z,11.30
2023-04-13T06:57:20.377Z,11.40
2023-04-13T07:00:25.950Z,11.40
2023-04-13T07:03:18.308Z,11.40
2023-04-13T07:06:09.465Z,11.40
2023-04-13T07:08:59.104Z,11.50
2023-04-13T07:11:50.103Z,11.50
2023-04-13T07:14:41.808Z,11.50
2023-04-13T07:17:31.971Z,11.60
2023-04-13T07:20:21.883Z,11.70
2023-04-13T07:23:11.675Z,11.80
2023-04-13T07:26:01.135Z,12.00
2023-04-13T07:28:52.045Z,12.00
2023-04-13T07:31:42.105Z,12.20
2023-04-13T07:34:32.663Z,12.20
2023-04-13T07:37:22.322Z,12.30
2023-04-13T07:40:13.564Z,12.40
2023-04-13T07:43:03.041Z,12.60
2023-04-13T07:45:54.078Z,12.70
2023-04-13T07:48:58.404Z,12.50
2023-04-13T07:51:48.029Z,12.50
2023-04-13T07:54:38.683Z,12.60
2023-04-13T07:57:28.856Z,12.50
2023-04-13T08:00:20.849Z,12.60
2023-04-13T08:03:13.388Z,12.70
2023-04-13T08:06:04.093Z,12.70
2023-04-13T08:08:54.191Z,12.60
2023-04-13T08:11:44.474Z,12.60
2023-04-13T08:14:34.018Z,12.80
2023-04-13T08:17:23.540Z,12.80
2023-04-13T08:20:15.212Z,12.80
2023-04-13T08:23:05.454Z,12.70
2023-04-13T08:25:55.550Z,12.80
2023-04-13T08:28:45.131Z,12.80
2023-04-13T08:31:34.553Z,12.80
2023-04-13T08:34:24.051Z,12.80
2023-04-13T08:37:16.510Z,12.80
2023-04-13T08:40:07.998Z,12.80
2023-04-13T08:42:57.807Z,12.80
2023-04-13T08:45:47.798Z,12.60
2023-04-13T08:48:52.875Z,12.70
2023-04-13T08:51:46.523Z,12.60
2023-04-13T08:54:37.504Z,12.60
2023-04-13T08:57:28.217Z,12.70
2023-04-13T09:00:19.822Z,12.80
2023-04-13T09:03:13.544Z,12.90
2023-04-13T09:06:06.650Z,13.00
2023-04-13T09:08:57.405Z,12.80
2023-04-13T09:11:51.541Z,13.00
2023-04-13T09:14:43.297Z,13.20
2023-04-13T09:17:34.377Z,13.30
2023-04-13T09:20:25.424Z,13.40
2023-04-13T09:23:16.542Z,13.50
2023-04-13T09:26:07.945Z,13.40
2023-04-13T09:28:59.963Z,13.20
2023-04-13T09:31:50.174Z,13.20
2023-04-13T09:34:39.656Z,13.30
2023-04-13T09:37:29.923Z,13.60
2023-04-13T09:40:20.537Z,13.70
2023-04-13T09:43:13.077Z,13.90
2023-04-13T09:46:04.339Z,14.10
2023-04-13T09:49:01.831Z,14.00
2023-04-13T09:51:51.869Z,14.20
2023-04-13T09:54:41.340Z,14.40
2023-04-13T09:57:32.108Z,14.50
2023-04-13T10:00:22.530Z,14.20
2023-04-13T10:03:14.981Z,14.10
2023-04-13T10:06:08.259Z,14.10
2023-04-13T10:08:57.818Z,14.30
2023-04-13T10:11:49.439Z,14.70
2023-04-13T10:14:41.197Z,14.90
2023-04-13T10:17:50.742Z,15.50
2023-04-13T10:20:41.953Z,15.30
2023-04-13T10:23:32.615Z,14.90
2023-04-13T10:26:32.455Z,14.80
2023-04-13T10:29:29.914Z,14.50
2023-04-13T10:32:23.866Z,14.70
2023-04-13T10:35:16.244Z,15.30
2023-04-13T10:38:09.080Z,15.40
2023-04-13T10:40:58.969Z,15.90
2023-04-13T10:43:49.259Z,16.20
2023-04-13T10:46:38.942Z,15.90
2023-04-13T10:49:35.109Z,15.40
2023-04-13T10:52:24.884Z,15.60
2023-04-13T10:55:19.763Z,15.80
2023-04-13T10:58:18.009Z,15.70
2023-04-13T11:01:08.605Z,15.40
2023-04-13T11:04:05.316Z,15.40
2023-04-13T11:06:57.791Z,15.30
2023-04-13T11:09:48.762Z,15.10
2023-04-13T11:12:39.708Z,15.30
2023-04-13T11:15:30.671Z,15.30
2023-04-13T11:18:27.433Z,15.30
2023-04-13T11:21:17.879Z,15.00
2023-04-13T11:24:07.741Z,14.90
2023-04-13T11:26:58.041Z,14.90
2023-04-13T11:29:58.429Z,15.00
2023-04-13T11:32:49.090Z,15.50
2023-04-13T11:35:49.825Z,15.70
2023-04-13T11:38:42.672Z,16.20
2023-04-13T11:41:33.266Z,16.40
2023-04-13T11:44:22.812Z,16.30
2023-04-13T11:47:16.273Z,16.50
2023-04-13T11:50:07.416Z,16.80
2023-04-13T11:52:58.357Z,16.60
2023-04-13T11:55:53.375Z,16.90
2023-04-13T11:58:43.850Z,16.90
2023-04-13T12:01:34.345Z,17.30
2023-04-13T12:04:28.435Z,17.60
2023-04-13T12:07:19.688Z,17.70
2023-04-13T12:13:16.934Z,17.90
2023-04-13T12:16:16.270Z,17.40
2023-04-13T12:19:09.975Z,16.80
2023-04-13T12:22:03.338Z,16.50
2023-04-13T12:24:53.637Z,16.30
2023-04-13T12:27:43.289Z,15.90
2023-04-13T12:30:34.447Z,16.10
2023-04-13T12:33:24.247Z,15.80
2023-04-13T12:36:13.766Z,16.10
2023-04-13T12:39:05.805Z,16.20
2023-04-13T12:41:55.197Z,16.30
2023-04-13T12:44:44.632Z,15.70
2023-04-13T12:47:34.264Z,15.30
2023-04-13T12:50:24.016Z,15.20
2023-04-13T12:53:13.674Z,15.30
2023-04-13T12:56:05.313Z,15.10
2023-04-13T12:58:54.731Z,15.00
2023-04-13T13:01:44.544Z,14.90
2023-04-13T13:04:34.358Z,14.80
2023-04-13T13:07:23.984Z,14.50
2023-04-13T13:10:29.177Z,14.60
2023-04-13T13:13:21.904Z,14.40
2023-04-13T13:16:11.967Z,14.50
2023-04-13T13:19:02.842Z,14.30
2023-04-13T13:21:52.595Z,14.40
2023-04-13T13:24:43.019Z,14.40
2023-04-13T13:28:05.236Z,14.50
2023-04-13T13:30:43.896Z,14.60
2023-04-13T13:33:33.278Z,14.80
2023-04-13T13:36:23.073Z,14.80
2023-04-13T13:39:13.009Z,14.80
2023-04-13T13:42:03.672Z,14.80
2023-04-13T13:44:53.407Z,15.00
2023-04-13T13:47:44.379Z,15.00
2023-04-13T13:50:33.880Z,15.10
2023-04-13T13:53:23.433Z,15.10
2023-04-13T13:56:12.988Z,14.90
2023-04-13T13:59:02.580Z,15.00
2023-04-13T14:01:52.097Z,14.90
2023-04-13T14:04:43.594Z,15.00
2023-04-13T14:07:33.147Z,14.90
2023-04-13T14:10:22.737Z,14.90
2023-04-13T14:13:12.067Z,14.90
2023-04-13T14:16:01.625Z,14.90
2023-04-13T14:18:51.692Z,14.90
2023-04-13T14:21:42.984Z,14.80
2023-04-13T14:24:32.447Z,14.80
2023-04-13T14:27:21.754Z,14.70
2023-04-13T14:30:12.066Z,14.60
2023-04-13T14:33:01.639Z,14.60
2023-04-13T14:35:51.838Z,14.50
2023-04-13T14:38:43.085Z,14.40
2023-04-13T14:41:32.771Z,14.20
2023-04-13T14:44:22.763Z,14.20
2023-04-13T14:47:12.809Z,14.10
2023-04-13T14:50:02.469Z,14.10
2023-04-13T14:52:53.461Z,14.10
2023-04-13T14:55:46.276Z,14.00
2023-04-13T14:58:35.809Z,14.00
2023-04-13T15:01:25.597Z,13.90
2023-04-13T15:04:20.581Z,13.90
2023-04-13T15:07:10.409Z,13.90
2023-04-13T15:10:01.036Z,13.90
2023-04-13T15:12:52.707Z,14.00
2023-04-13T15:15:42.423Z,14.00
2023-04-13T15:18:32.317Z,14.10
2023-04-13T15:21:22.114Z,14.00
2023-04-13T15:24:12.067Z,13.90
2023-04-13T15:27:04.053Z,13.90
2023-04-13T15:30:05.557Z,13.80
2023-04-13T15:33:02.516Z,13.80
2023-04-13T15:36:01.727Z,13.60
2023-04-13T15:38:57.721Z,13.50
2023-04-13T15:41:54.267Z,13.40
2023-04-13T15:44:44.676Z,13.30
2023-04-13T15:47:36.451Z,13.30
2023-04-13T15:50:33.709Z,13.30
2023-04-13T15:53:24.543Z,13.30
2023-04-13T15:56:15.638Z,13.20
2023-04-13T15:59:05.190Z,13.20
2023-04-13T16:01:55.035Z,13.10
2023-04-13T16:04:46.381Z,13.10
2023-04-13T16:07:36.107Z,13.10
2023-04-13T16:10:25.613Z,13.00
2023-04-13T16:13:19.589Z,13.00
2023-04-13T16:16:09.966Z,12.90
2023-04-13T16:19:00.999Z,12.90
2023-04-13T16:21:54.410Z,12.80
2023-04-13T16:24:43.909Z,12.80
2023-04-13T16:27:33.767Z,12.70
2023-04-13T16:30:23.860Z,12.70
2023-04-13T16:33:13.665Z,12.60
2023-04-13T16:36:03.254Z,12.50
2023-04-13T16:38:55.162Z,12.60
2023-04-13T16:41:45.146Z,12.60
2023-04-13T16:44:34.665Z,12.60
2023-04-13T16:47:24.378Z,12.60
2023-04-13T16:50:13.751Z,12.50
2023-04-13T16:53:03.346Z,12.50
2023-04-13T16:55:56.068Z,12.50
2023-04-13T16:58:45.613Z,12.50
2023-04-13T17:01:37.900Z,12.40
2023-04-13T17:04:29.944Z,12.40
2023-04-13T17:07:24.592Z,12.40
2023-04-13T17:10:18.034Z,12.40
2023-04-13T17:13:10.790Z,12.30
2023-04-13T17:16:04.560Z,12.30
2023-04-13T17:18:58.285Z,12.30
2023-04-13T17:21:54.302Z,12.30
2023-04-13T17:24:44.037Z,12.30
2023-04-13T17:27:34.042Z,12.30
2023-04-13T17:30:26.298Z,12.30
2023-04-13T17:33:16.466Z,12.30
2023-04-13T17:36:06.848Z,12.30
2023-04-13T17:38:56.466Z,12.20
2023-04-13T17:41:46.351Z,12.20
2023-04-13T17:44:36.153Z,12.20
2023-04-13T17:47:27.775Z,12.10
2023-04-13T17:50:17.845Z,12.20
2023-04-13T17:53:07.631Z,12.10
2023-04-13T17:55:57.770Z,12.00
2023-04-13T17:58:47.245Z,12.00
2023-04-13T18:01:37.594Z,12.00
2023-04-13T18:04:29.707Z,12.00
2023-04-13T18:07:22.145Z,12.00
2023-04-13T18:10:12.188Z,12.00
2023-04-13T18:13:02.487Z,12.00
2023-04-13T18:15:53.109Z,12.00
2023-04-13T18:18:47.149Z,11.90
2023-04-13T18:21:39.564Z,11.90
2023-04-13T18:24:30.295Z,11.90
2023-04-13T18:27:20.871Z,11.90
2023-04-13T18:30:12.969Z,11.80
2023-04-13T18:33:03.872Z,11.70
2023-04-13T18:35:57.330Z,11.70
2023-04-13T18:38:50.616Z,11.60
2023-04-13T18:41:42.655Z,11.60
2023-04-13T18:44:33.953Z,11.60
2023-04-13T18:47:28.669Z,11.60
2023-04-13T18:50:19.183Z,11.60
2023-04-13T18:53:11.398Z,11.40
2023-04-13T18:56:04.878Z,11.40
2023-04-13T18:58:55.177Z,11.40
2023-04-13T19:01:47.985Z,11.40
2023-04-13T19:04:43.146Z,11.30
2023-04-13T19:07:36.009Z,11.30
2023-04-13T19:10:26.847Z,11.30
2023-04-13T19:13:19.428Z,11.40
2023-04-13T19:16:09.932Z,11.40
2023-04-13T19:18:59.981Z,11.40
2023-04-13T19:21:50.365Z,11.40
2023-04-13T19:24:41.096Z,11.30
2023-04-13T19:27:32.232Z,11.30
2023-04-13T19:30:25.574Z,11.30
2023-04-13T19:33:19.353Z,11.30
2023-04-13T19:36:10.091Z,11.20
2023-04-13T19:39:06.510Z,11.20
2023-04-13T19:41:59.111Z,11.30
2023-04-13T19:44:49.416Z,11.20
2023-04-13T19:47:42.594Z,11.20
2023-04-13T19:50:37.029Z,11.20
2023-04-13T19:53:27.128Z,11.20
2023-04-13T19:56:18.298Z,11.20
2023-04-13T19:59:10.226Z,11.20
2023-04-13T20:02:00.722Z,11.20
2023-04-13T20:04:52.695Z,11.20
2023-04-13T20:07:42.517Z,11.10
2023-04-13T20:10:34.167Z,11.10
2023-04-13T20:13:25.052Z,11.10
2023-04-13T20:16:16.373Z,11.00
2023-04-13T20:19:09.675Z,11.00
2023-04-13T20:22:02.826Z,11.10
2023-04-13T20:24:52.404Z,11.10
2023-04-13T20:27:43.204Z,11.10
2023-04-13T20:30:32.914Z,11.10
2023-04-13T20:33:22.322Z,11.00
2023-04-13T20:36:12.124Z,11.00
2023-04-13T20:39:04.006Z,10.90
2023-04-13T20:41:56.542Z,10.80
2023-04-13T20:44:46.521Z,10.80
2023-04-13T20:47:37.241Z,10.80
2023-04-13T20:50:27.758Z,10.70
2023-04-13T20:53:18.039Z,10.70
2023-04-13T20:56:09.291Z,10.50
2023-04-13T20:58:59.246Z,10.30
2023-04-13T21:01:49.649Z,10.20
2023-04-13T21:04:39.167Z,10.00
2023-04-13T21:07:30.434Z,9.90
2023-04-13T21:10:20.569Z,9.80
2023-04-13T21:13:12.397Z,9.70
2023-04-13T21:16:01.951Z,9.60
2023-04-13T21:18:51.296Z,9.50
2023-04-13T21:21:41.084Z,9.40
2023-04-13T21:24:30.942Z,9.40
2023-04-13T21:27:20.450Z,9.30
2023-04-13T21:30:12.479Z,9.30
2023-04-13T21:33:01.930Z,9.20
2023-04-13T21:35:51.485Z,9.20
2023-04-13T21:38:42.187Z,9.10
2023-04-13T21:41:31.640Z,9.00
2023-04-13T21:44:29.743Z,8.90
2023-04-13T21:47:21.267Z,8.80
2023-04-13T21:50:11.587Z,8.70
2023-04-13T21:53:01.120Z,8.70
2023-04-13T21:55:50.595Z,8.60
2023-04-13T21:58:43.061Z,8.60
2023-04-13T22:01:33.268Z,8.70
2023-04-13T22:04:24.807Z,8.70
2023-04-13T22:07:14.624Z,8.70
2023-04-13T22:10:04.016Z,8.70
2023-04-13T22:12:53.695Z,8.70
2023-04-13T22:15:43.883Z,8.80
2023-04-13T22:18:33.408Z,8.80
2023-04-13T22:21:24.410Z,8.80
2023-04-13T22:24:14.685Z,8.90
2023-04-13T22:27:04.456Z,9.00
2023-04-13T22:29:58.529Z,9.00
2023-04-13T22:32:47.956Z,9.10
2023-04-13T22:35:38.141Z,9.20
2023-04-13T22:38:29.072Z,9.30
2023-04-13T22:41:19.163Z,9.40
2023-04-13T22:44:08.569Z,9.50
2023-04-13T22:46:58.210Z,9.60
2023-04-13T22:49:47.689Z,9.70
2023-04-13T22:52:38.075Z,9.80
2023-04-13T22:55:30.023Z,9.90
2023-04-13T22:58:19.635Z,9.90
2023-04-13T23:01:09.390Z,9.90
2023-04-13T23:03:59.532Z,10.00
2023-04-13T23:06:50.311Z,10.00
2023-04-13T23:09:39.693Z,10.00
2023-04-13T23:12:31.341Z,10.00
2023-04-13T23:15:21.110Z,10.00
2023-04-13T23:18:10.875Z,9.90
2023-04-13T23:21:00.366Z,9.90
2023-04-13T23:23:49.880Z,9.80
2023-04-13T23:26:39.284Z,9.70
2023-04-13T23:29:30.373Z,9.70
2023-04-13T23:32:20.119Z,9.70
2023-04-13T23:35:10.866Z,9.70
2023-04-13T23:38:00.953Z,9.70
2023-04-13T23:40:50.473Z,9.70
2023-04-13T23:43:40.422Z,9.80
2023-04-13T23:46:34.217Z,9.80
2023-04-13T23:49:24.479Z,9.80
2023-04-13T23:52:14.377Z,9.80
2023-04-13T23:55:04.226Z,9.80
2023-04-13T23:57:53.746Z,9.90
